createdAt,value
2023-01-11T00:00:05.357Z,3.75
2023-01-11T00:02:38.837Z,4.20
2023-01-11T00:05:06.207Z,4.28
2023-01-11T00:07:33.302Z,3.70
2023-01-11T00:10:04.503Z,3.92
2023-01-11T00:12:31.914Z,4.30
2023-01-11T00:14:59.010Z,3.63
2023-01-11T00:17:26.114Z,3.47
2023-01-11T00:19:53.184Z,4.22
2023-01-11T00:22:20.293Z,3.30
2023-01-11T00:24:47.407Z,4.18
2023-01-11T00:27:14.496Z,4.03
2023-01-11T00:29:41.579Z,3.90
2023-01-11T00:32:08.999Z,3.58
2023-01-11T00:34:36.094Z,3.65
2023-01-11T00:37:04.375Z,4.00
2023-01-11T00:39:31.519Z,3.70
2023-01-11T00:42:17.404Z,3.60
2023-01-11T00:47:48.064Z,3.67
2023-01-11T00:50:15.279Z,3.53
2023-01-11T00:52:42.376Z,3.92
2023-01-11T00:55:09.775Z,3.60
2023-01-11T00:57:36.849Z,3.90
2023-01-11T01:00:04.562Z,4.00
2023-01-11T01:02:32.754Z,3.10
2023-01-11T01:04:59.909Z,3.60
2023-01-11T01:07:27.018Z,3.35
2023-01-11T01:09:54.110Z,3.33
2023-01-11T01:12:39.649Z,3.08
2023-01-11T01:15:07.137Z,3.13
2023-01-11T01:17:34.201Z,3.10
2023-01-11T01:20:01.321Z,3.17
2023-01-11T01:22:28.437Z,2.78
2023-01-11T01:24:55.536Z,2.72
2023-01-11T01:27:22.638Z,2.80
2023-01-11T01:29:49.731Z,3.00
2023-01-11T01:32:16.831Z,2.60
2023-01-11T01:34:43.952Z,2.58
2023-01-11T01:37:12.237Z,2.78
2023-01-11T01:39:39.340Z,2.20
2023-01-11T01:42:07.192Z,2.30
2023-01-11T01:44:53.933Z,2.17
2023-01-11T01:47:22.441Z,2.20
2023-01-11T01:49:49.584Z,2.35
2023-01-11T01:52:17.227Z,1.95
2023-01-11T01:54:47.159Z,1.70
2023-01-11T01:57:21.757Z,1.92
2023-01-11T01:59:51.848Z,1.80
2023-01-11T02:02:20.819Z,1.83
2023-01-11T02:04:48.465Z,1.83
2023-01-11T02:07:17.348Z,1.67
2023-01-11T02:09:44.863Z,1.90
2023-01-11T02:12:12.550Z,2.20
2023-01-11T02:14:40.751Z,1.75
2023-01-11T02:17:08.776Z,1.63
2023-01-11T02:19:51.807Z,1.75
2023-01-11T02:22:30.947Z,1.75
2023-01-11T02:25:00.815Z,1.65
2023-01-11T02:27:34.059Z,1.92
2023-01-11T02:30:01.272Z,1.60
2023-01-11T02:32:34.167Z,1.80
2023-01-11T02:35:04.365Z,1.60
2023-01-11T02:37:49.308Z,1.67
2023-01-11T02:40:22.231Z,1.95
2023-01-11T02:43:12.247Z,1.60
2023-01-11T02:46:00.810Z,2.00
2023-01-11T02:48:43.765Z,1.73
2023-01-11T02:51:17.270Z,2.15
2023-01-11T02:53:49.419Z,2.22
2023-01-11T02:56:21.527Z,2.35
2023-01-11T02:58:50.207Z,2.47
2023-01-11T03:01:18.852Z,2.20
2023-01-11T03:03:45.989Z,2.00
2023-01-11T03:06:17.914Z,2.08
2023-01-11T03:08:54.681Z,2.28
2023-01-11T03:11:40.435Z,2.30
2023-01-11T03:17:00.948Z,2.20
2023-01-11T03:19:32.668Z,2.20
2023-01-11T03:22:02.791Z,2.22
2023-01-11T03:24:43.790Z,2.40
2023-01-11T03:27:29.904Z,2.50
2023-01-11T03:29:56.984Z,2.50
2023-01-11T03:32:47.093Z,2.28
2023-01-11T03:35:20.308Z,2.10
2023-01-11T03:37:50.148Z,2.28
2023-01-11T03:40:22.974Z,1.67
2023-01-11T03:43:12.488Z,1.67
2023-01-11T03:45:54.357Z,2.05
2023-01-11T03:48:35.410Z,1.80
2023-01-11T03:51:03.609Z,1.48
2023-01-11T03:53:32.303Z,1.10
2023-01-11T03:56:00.831Z,1.00
2023-01-11T03:58:28.152Z,1.00
2023-01-11T04:00:58.326Z,1.00
2023-01-11T04:03:27.144Z,0.80
2023-01-11T04:05:57.823Z,0.85
2023-01-11T04:08:24.930Z,0.90
2023-01-11T04:10:52.093Z,1.30
2023-01-11T04:13:19.178Z,1.40
2023-01-11T04:15:46.278Z,1.30
2023-01-11T04:18:13.354Z,1.40
2023-01-11T04:20:41.258Z,1.40
2023-01-11T04:23:12.109Z,1.90
2023-01-11T04:25:39.248Z,1.67
2023-01-11T04:28:06.366Z,2.28
2023-01-11T04:30:33.964Z,2.10
2023-01-11T04:33:01.093Z,2.40
2023-01-11T04:35:28.339Z,2.42
2023-01-11T04:37:55.994Z,2.42
2023-01-11T04:40:23.558Z,2.70
2023-01-11T04:42:50.793Z,2.83
2023-01-11T04:45:17.932Z,3.15
2023-01-11T04:47:45.034Z,3.00
2023-01-11T04:50:12.291Z,3.10
2023-01-11T04:52:41.479Z,2.97
2023-01-11T04:55:09.322Z,2.60
2023-01-11T04:57:36.819Z,2.88
2023-01-11T05:00:08.599Z,2.78
2023-01-11T05:02:35.650Z,2.80
2023-01-11T05:05:02.857Z,2.80
2023-01-11T05:07:30.010Z,2.35
2023-01-11T05:09:57.218Z,2.33
2023-01-11T05:12:24.375Z,2.40
2023-01-11T05:14:51.471Z,2.55
2023-01-11T05:17:18.581Z,2.40
2023-01-11T05:19:45.727Z,2.20
2023-01-11T05:22:12.858Z,2.17
2023-01-11T05:24:40.043Z,2.22
2023-01-11T05:27:07.242Z,1.92
2023-01-11T05:29:34.446Z,2.08
2023-01-11T05:32:01.678Z,2.00
2023-01-11T05:34:28.830Z,2.30
2023-01-11T05:36:56.036Z,1.70
2023-01-11T05:39:23.891Z,1.92
2023-01-11T05:41:51.073Z,1.92
2023-01-11T05:44:37.550Z,1.70
2023-01-11T05:47:04.747Z,2.20
2023-01-11T05:49:31.949Z,1.90
2023-01-11T05:51:59.144Z,2.03
2023-01-11T05:54:26.359Z,2.00
2023-01-11T05:56:53.456Z,2.15
2023-01-11T05:59:20.580Z,2.03
2023-01-11T06:01:47.856Z,2.00
2023-01-11T06:04:15.036Z,2.13
2023-01-11T06:06:42.228Z,2.15
2023-01-11T06:09:09.400Z,2.45
2023-01-11T06:11:36.538Z,2.08
2023-01-11T06:14:03.667Z,1.75
2023-01-11T06:16:30.926Z,2.10
2023-01-11T06:18:58.092Z,2.08
2023-01-11T06:21:25.538Z,1.92
2023-01-11T06:23:52.749Z,2.00
2023-01-11T06:26:21.321Z,1.90
2023-01-11T06:28:48.470Z,2.05
2023-01-11T06:31:17.590Z,2.25
2023-01-11T06:33:45.843Z,1.83
2023-01-11T06:36:13.881Z,2.15
2023-01-11T06:38:41.128Z,1.65
2023-01-11T06:41:08.555Z,2.42
2023-01-11T06:43:36.145Z,1.88
2023-01-11T06:46:03.345Z,2.28
2023-01-11T06:48:30.635Z,2.15
2023-01-11T06:50:58.516Z,1.77
2023-01-11T06:53:28.488Z,2.05
2023-01-11T06:55:56.992Z,1.92
2023-01-11T06:58:24.707Z,1.70
2023-01-11T07:00:52.796Z,2.33
2023-01-11T07:03:20.674Z,1.77
2023-01-11T07:05:48.083Z,1.85
2023-01-11T07:08:15.277Z,1.80
2023-01-11T07:10:43.756Z,2.00
2023-01-11T07:13:12.173Z,2.10
2023-01-11T07:15:39.667Z,2.45
2023-01-11T07:18:06.766Z,1.70
2023-01-11T07:20:33.880Z,1.60
2023-01-11T07:23:01.585Z,1.88
2023-01-11T07:25:28.958Z,1.60
2023-01-11T07:28:05.574Z,2.13
2023-01-11T07:30:44.567Z,1.60
2023-01-11T07:33:19.275Z,1.55
2023-01-11T07:35:48.590Z,1.80
2023-01-11T07:38:15.664Z,1.60
2023-01-11T07:40:42.826Z,1.35
2023-01-11T07:43:15.213Z,1.67
2023-01-11T07:45:48.954Z,2.20
2023-01-11T07:48:20.679Z,1.50
2023-01-11T07:50:48.673Z,1.88
2023-01-11T07:53:15.853Z,2.45
2023-01-11T07:55:43.477Z,1.50
2023-01-11T07:58:13.899Z,1.85
2023-01-11T08:00:41.604Z,2.58
2023-01-11T08:03:09.195Z,1.92
2023-01-11T08:05:36.414Z,1.95
2023-01-11T08:08:03.728Z,2.00
2023-01-11T08:10:31.399Z,2.00
2023-01-11T08:13:17.429Z,1.67
2023-01-11T08:18:12.631Z,1.90
2023-01-11T08:20:40.248Z,1.95
2023-01-11T08:23:08.678Z,1.35
2023-01-11T08:25:36.060Z,1.95
2023-01-11T08:28:03.844Z,1.50
2023-01-11T08:30:31.049Z,1.45
2023-01-11T08:32:58.235Z,2.17
2023-01-11T08:35:26.272Z,2.25
2023-01-11T08:37:53.629Z,2.25
2023-01-11T08:40:23.745Z,2.22
2023-01-11T08:42:54.442Z,1.55
2023-01-11T08:45:22.136Z,1.80
2023-01-11T08:47:50.771Z,1.90
2023-01-11T08:50:18.639Z,1.77
2023-01-11T08:52:46.257Z,2.00
2023-01-11T08:55:13.459Z,1.98
2023-01-11T08:57:40.636Z,1.75
2023-01-11T09:00:08.556Z,1.73
2023-01-11T09:02:36.005Z,1.98
2023-01-11T09:05:03.306Z,2.28
2023-01-11T09:07:30.445Z,1.67
2023-01-11T09:09:57.584Z,1.90
2023-01-11T09:12:25.276Z,1.80
2023-01-11T09:14:52.406Z,2.20
2023-01-11T09:17:19.558Z,2.17
2023-01-11T09:19:46.678Z,1.92
2023-01-11T09:22:13.875Z,1.70
2023-01-11T09:24:41.057Z,2.22
2023-01-11T09:27:08.240Z,2.08
2023-01-11T09:29:37.287Z,1.60
2023-01-11T09:32:04.809Z,2.55
2023-01-11T09:34:31.959Z,2.10
2023-01-11T09:37:02.498Z,1.52
2023-01-11T09:39:29.659Z,2.08
2023-01-11T09:42:12.120Z,2.33
2023-01-11T09:44:46.396Z,2.15
2023-01-11T09:47:18.892Z,2.50
2023-01-11T09:49:50.861Z,1.70
2023-01-11T09:52:44.449Z,3.22
2023-01-11T09:55:19.777Z,2.13
2023-01-11T09:57:51.872Z,1.83
2023-01-11T10:00:24.087Z,2.17
2023-01-11T10:03:04.643Z,2.08
2023-01-11T10:05:37.646Z,2.00
2023-01-11T10:18:25.527Z,2.28
2023-01-11T10:18:27.592Z,1.98
2023-01-11T10:23:24.771Z,1.77
2023-01-11T10:25:56.421Z,2.50
2023-01-11T10:28:39.123Z,1.77
2023-01-11T10:31:43.355Z,1.88
2023-01-11T10:34:30.605Z,2.40
2023-01-11T10:37:21.676Z,1.95
2023-01-11T10:40:37.166Z,2.88
2023-01-11T10:43:17.845Z,2.40
2023-01-11T10:45:51.343Z,1.67
2023-01-11T10:48:20.609Z,2.25
2023-01-11T10:51:00.051Z,2.60
2023-01-11T10:53:33.265Z,2.28
2023-01-11T10:56:14.785Z,1.80
2023-01-11T10:58:46.099Z,1.90
2023-01-11T11:01:46.312Z,1.73
2023-01-11T11:04:27.256Z,2.40
2023-01-11T11:07:06.304Z,2.10
2023-01-11T11:09:45.983Z,2.42
2023-01-11T11:12:45.691Z,1.88
2023-01-11T11:15:23.612Z,1.67
2023-01-11T11:17:53.672Z,2.08
2023-01-11T11:20:25.459Z,1.70
2023-01-11T11:22:53.735Z,1.80
2023-01-11T11:25:43.310Z,1.67
2023-01-11T11:28:30.037Z,1.65
2023-01-11T11:30:58.793Z,2.20
2023-01-11T11:33:36.821Z,1.77
2023-01-11T11:36:08.833Z,1.50
2023-01-11T11:38:40.209Z,1.75
2023-01-11T11:41:11.453Z,1.90
2023-01-11T11:43:39.350Z,2.28
2023-01-11T11:46:19.879Z,2.30
2023-01-11T11:49:05.826Z,2.05
2023-01-11T11:51:33.297Z,1.92
2023-01-11T11:54:00.502Z,1.63
2023-01-11T11:56:29.450Z,1.70
2023-01-11T11:58:57.511Z,1.70
2023-01-11T12:01:32.417Z,2.30
2023-01-11T12:04:01.523Z,1.73
2023-01-11T12:06:29.901Z,2.30
2023-01-11T12:08:58.217Z,2.00
2023-01-11T12:11:36.687Z,2.05
2023-01-11T12:14:17.615Z,2.38
2023-01-11T12:16:45.776Z,1.50
2023-01-11T12:19:26.214Z,1.80
2023-01-11T12:21:53.607Z,1.88
2023-01-11T12:24:22.290Z,1.60
2023-01-11T12:26:52.462Z,1.77
2023-01-11T12:29:19.716Z,1.65
2023-01-11T12:31:46.802Z,1.50
2023-01-11T12:34:17.027Z,2.05
2023-01-11T12:36:44.091Z,2.15
2023-01-11T12:39:20.433Z,1.73
2023-01-11T12:42:10.611Z,1.52
2023-01-11T12:44:37.728Z,1.90
2023-01-11T12:47:09.175Z,1.88
2023-01-11T12:49:39.015Z,1.70
2023-01-11T12:52:36.068Z,1.65
2023-01-11T12:55:15.511Z,2.00
2023-01-11T12:58:14.446Z,2.05
2023-01-11T13:00:44.702Z,2.10
2023-01-11T13:03:14.884Z,2.20
2023-01-11T13:06:06.662Z,1.83
2023-01-11T13:08:36.707Z,2.03
2023-01-11T13:11:10.071Z,1.27
2023-01-11T13:13:50.777Z,1.80
2023-01-11T13:16:34.116Z,1.48
2023-01-11T13:19:07.618Z,2.63
2023-01-11T13:21:44.369Z,1.73
2023-01-11T13:24:13.707Z,1.95
2023-01-11T13:26:43.218Z,1.85
2023-01-11T13:29:10.292Z,2.17
2023-01-11T13:31:37.904Z,1.48
2023-01-11T13:34:07.967Z,1.83
2023-01-11T13:36:39.433Z,2.85
2023-01-11T13:39:17.040Z,1.95
2023-01-11T13:41:46.965Z,1.40
2023-01-11T13:44:17.576Z,1.88
2023-01-11T13:46:50.753Z,1.83
2023-01-11T13:51:58.059Z,2.08
2023-01-11T13:54:58.709Z,1.42
2023-01-11T13:57:30.743Z,1.60
2023-01-11T14:00:04.039Z,1.77
2023-01-11T14:02:48.845Z,2.42
2023-01-11T14:05:18.693Z,1.98
2023-01-11T14:07:51.910Z,1.38
2023-01-11T14:12:55.115Z,1.27
2023-01-11T14:15:22.329Z,2.10
2023-01-11T14:18:05.673Z,2.53
2023-01-11T14:20:47.797Z,2.33
2023-01-11T14:23:16.815Z,2.00
2023-01-11T14:25:46.886Z,1.48
2023-01-11T14:28:42.062Z,2.08
2023-01-11T14:31:35.200Z,1.75
2023-01-11T14:34:02.379Z,2.38
2023-01-11T14:36:37.954Z,2.08
2023-01-11T14:39:17.222Z,2.75
2023-01-11T14:41:44.287Z,2.15
2023-01-11T14:44:14.485Z,1.52
2023-01-11T14:46:44.690Z,1.73
2023-01-11T14:49:41.374Z,2.55
2023-01-11T14:52:15.068Z,1.50
2023-01-11T14:54:46.385Z,1.52
2023-01-11T14:57:42.309Z,2.38
2023-01-11T15:00:12.471Z,2.03
2023-01-11T15:02:39.626Z,1.75
2023-01-11T15:05:07.553Z,2.13
2023-01-11T15:07:34.628Z,1.65
2023-01-11T15:10:05.886Z,2.25
2023-01-11T15:12:34.840Z,2.13
2023-01-11T15:15:14.921Z,1.77
2023-01-11T15:18:01.193Z,2.15
2023-01-11T15:20:28.737Z,2.35
2023-01-11T15:22:57.544Z,2.08
2023-01-11T15:25:26.497Z,2.00
2023-01-11T15:27:53.899Z,1.75
2023-01-11T15:30:39.388Z,2.17
2023-01-11T15:33:18.914Z,2.28
2023-01-11T15:38:42.440Z,1.63
2023-01-11T15:41:38.810Z,2.10
2023-01-11T15:44:28.651Z,1.75
2023-01-11T15:47:01.828Z,1.55
2023-01-11T15:52:12.924Z,1.95
2023-01-11T15:55:16.779Z,1.90
2023-01-11T15:58:02.361Z,2.70
2023-01-11T16:00:30.080Z,2.13
2023-01-11T16:03:00.347Z,1.75
2023-01-11T16:05:32.925Z,2.50
2023-01-11T16:08:00.042Z,1.58
2023-01-11T16:10:50.114Z,1.83
2023-01-11T16:13:20.345Z,2.25
2023-01-11T16:15:50.802Z,1.58
2023-01-11T16:18:21.820Z,1.80
2023-01-11T16:21:00.273Z,1.83
2023-01-11T16:23:28.370Z,1.95
2023-01-11T16:25:57.123Z,1.52
2023-01-11T16:28:25.479Z,1.80
2023-01-11T16:31:00.631Z,1.35
2023-01-11T16:33:29.123Z,1.88
2023-01-11T16:36:18.762Z,1.55
2023-01-11T16:38:45.865Z,2.20
2023-01-11T16:41:14.512Z,1.70
2023-01-11T16:43:47.156Z,2.28
2023-01-11T16:46:27.188Z,1.55
2023-01-11T16:49:08.947Z,1.73
2023-01-11T16:51:36.151Z,1.77
2023-01-11T16:54:04.735Z,2.75
2023-01-11T16:56:35.219Z,1.08
2023-01-11T16:59:07.705Z,1.90
2023-01-11T17:01:51.976Z,1.90
2023-01-11T17:04:38.614Z,1.95
2023-01-11T17:07:20.848Z,1.67
2023-01-11T17:09:48.011Z,1.38
2023-01-11T17:12:20.160Z,1.95
2023-01-11T17:15:02.588Z,1.50
2023-01-11T17:17:34.761Z,1.58
2023-01-11T17:20:02.004Z,2.28
2023-01-11T17:22:31.183Z,1.80
2023-01-11T17:25:02.808Z,2.13
2023-01-11T17:27:30.063Z,2.42
2023-01-11T17:29:58.333Z,1.70
2023-01-11T17:32:34.354Z,1.75
2023-01-11T17:35:03.477Z,1.70
2023-01-11T17:37:30.721Z,1.77
2023-01-11T17:39:58.363Z,1.85
2023-01-11T17:42:44.397Z,2.35
2023-01-11T17:45:24.610Z,1.88
2023-01-11T17:47:53.321Z,2.10
2023-01-11T17:50:31.103Z,1.63
2023-01-11T17:53:06.207Z,1.35
2023-01-11T17:55:34.263Z,2.00
2023-01-11T17:58:09.788Z,1.90
2023-01-11T18:00:37.167Z,1.30
2023-01-11T18:03:15.850Z,2.17
2023-01-11T18:05:43.615Z,1.60
2023-01-11T18:08:21.100Z,1.58
2023-01-11T18:10:55.438Z,2.33
2023-01-11T18:13:28.330Z,2.05
2023-01-11T18:15:55.596Z,1.75
2023-01-11T18:18:42.656Z,1.65
2023-01-11T18:21:36.390Z,1.60
2023-01-11T18:24:09.790Z,1.90
2023-01-11T18:26:37.995Z,1.65
2023-01-11T18:29:05.427Z,2.17
2023-01-11T18:31:33.078Z,2.17
2023-01-11T18:34:00.191Z,2.08
2023-01-11T18:36:29.117Z,1.70
2023-01-11T18:38:56.363Z,1.92
2023-01-11T18:41:44.536Z,1.88
2023-01-11T18:44:12.157Z,1.73
2023-01-11T18:46:39.237Z,1.83
2023-01-11T18:49:06.305Z,1.85
2023-01-11T18:51:34.842Z,1.80
2023-01-11T18:54:02.023Z,2.50
2023-01-11T18:56:29.105Z,2.00
2023-01-11T18:58:56.239Z,1.85
2023-01-11T19:01:23.409Z,1.95
2023-01-11T19:03:51.237Z,2.30
2023-01-11T19:06:21.012Z,2.25
2023-01-11T19:08:48.204Z,1.83
2023-01-11T19:11:16.733Z,2.35
2023-01-11T19:13:46.561Z,2.17
2023-01-11T19:16:14.330Z,2.13
2023-01-11T19:18:41.555Z,1.92
2023-01-11T19:21:13.912Z,2.30
2023-01-11T19:23:41.985Z,1.95
2023-01-11T19:26:09.071Z,1.90
2023-01-11T19:28:37.062Z,2.90
2023-01-11T19:31:11.580Z,1.70
2023-01-11T19:33:40.237Z,2.47
2023-01-11T19:36:08.041Z,2.10
2023-01-11T19:38:35.240Z,1.77
2023-01-11T19:41:06.254Z,2.00
2023-01-11T19:43:33.594Z,2.20
2023-01-11T19:46:02.256Z,1.98
2023-01-11T19:48:31.466Z,1.42
2023-01-11T19:51:02.687Z,2.22
2023-01-11T19:53:30.839Z,1.80
2023-01-11T19:56:05.001Z,2.00
2023-01-11T19:58:33.315Z,1.35
2023-01-11T20:01:00.530Z,1.90
2023-01-11T20:03:28.949Z,2.42
2023-01-11T20:06:03.352Z,2.08
2023-01-11T20:08:30.549Z,2.00
2023-01-11T20:10:57.627Z,1.52
2023-01-11T20:13:24.767Z,1.80
2023-01-11T20:15:52.377Z,1.98
2023-01-11T20:18:19.551Z,1.83
2023-01-11T20:20:54.646Z,1.80
2023-01-11T20:23:21.822Z,1.95
2023-01-11T20:25:48.922Z,1.38
2023-01-11T20:28:16.160Z,1.67
2023-01-11T20:30:43.502Z,1.88
2023-01-11T20:33:10.707Z,1.98
2023-01-11T20:35:37.898Z,1.45
2023-01-11T20:38:05.027Z,1.55
2023-01-11T20:40:32.142Z,1.80
2023-01-11T20:43:00.322Z,1.63
2023-01-11T20:45:29.111Z,1.95
2023-01-11T20:47:56.234Z,1.50
2023-01-11T20:50:23.318Z,1.52
2023-01-11T20:52:50.838Z,1.48
2023-01-11T20:55:18.045Z,1.98
2023-01-11T20:57:45.833Z,2.47
2023-01-11T21:00:13.269Z,2.00
2023-01-11T21:02:40.488Z,2.28
2023-01-11T21:05:07.865Z,1.75
2023-01-11T21:07:35.154Z,1.70
2023-01-11T21:10:02.402Z,2.20
2023-01-11T21:12:29.478Z,2.85
2023-01-11T21:14:56.594Z,2.00
2023-01-11T21:17:23.668Z,1.83
2023-01-11T21:19:50.782Z,1.80
2023-01-11T21:22:17.983Z,1.65
2023-01-11T21:24:45.082Z,2.38
2023-01-11T21:27:12.429Z,1.98
2023-01-11T21:29:39.563Z,1.75
2023-01-11T21:32:06.755Z,1.90
2023-01-11T21:34:33.916Z,1.42
2023-01-11T21:37:01.063Z,1.90
2023-01-11T21:39:28.177Z,1.80
2023-01-11T21:41:55.400Z,1.40
2023-01-11T21:44:23.822Z,1.65
2023-01-11T21:46:52.032Z,1.38
2023-01-11T21:49:20.248Z,1.63
2023-01-11T21:51:47.389Z,1.90
2023-01-11T21:54:15.471Z,1.90
2023-01-11T21:56:42.678Z,1.55
2023-01-11T21:59:10.183Z,2.00
2023-01-11T22:01:38.006Z,1.52
2023-01-11T22:04:06.325Z,1.98
2023-01-11T22:06:40.925Z,1.48
2023-01-11T22:09:11.708Z,1.55
2023-01-11T22:11:39.618Z,2.05
2023-01-11T22:14:08.571Z,1.73
2023-01-11T22:16:36.387Z,1.63
2023-01-11T22:19:05.997Z,1.63
2023-01-11T22:21:33.215Z,2.05
2023-01-11T22:24:00.470Z,1.80
2023-01-11T22:26:29.906Z,1.85
2023-01-11T22:29:12.421Z,1.92
2023-01-11T22:31:40.869Z,1.60
2023-01-11T22:34:08.842Z,2.13
2023-01-11T22:36:36.424Z,1.88
2023-01-11T22:39:03.721Z,1.60
2023-01-11T22:41:31.148Z,1.52
2023-01-11T22:43:58.321Z,1.98
2023-01-11T22:46:26.082Z,1.85
2023-01-11T22:48:53.450Z,2.05
2023-01-11T22:51:22.026Z,2.03
2023-01-11T22:53:49.953Z,2.00
2023-01-11T22:56:22.043Z,1.83
2023-01-11T22:58:52.170Z,2.13
2023-01-11T23:01:19.253Z,1.67
2023-01-11T23:03:46.862Z,2.03
2023-01-11T23:06:16.371Z,1.70
2023-01-11T23:08:43.885Z,1.88
2023-01-11T23:11:13.839Z,1.85
2023-01-11T23:13:54.873Z,2.10
2023-01-11T23:16:25.331Z,1.92
2023-01-11T23:18:52.497Z,1.20
2023-01-11T23:21:20.462Z,1.83
2023-01-11T23:23:47.662Z,1.65
2023-01-11T23:26:17.939Z,1.70
2023-01-11T23:28:45.884Z,1.52
2023-01-11T23:31:17.536Z,1.55
2023-01-11T23:33:45.189Z,2.35
2023-01-11T23:36:12.692Z,1.90
2023-01-11T23:38:39.980Z,1.95
2023-01-11T23:41:33.242Z,2.05
2023-01-11T23:44:00.819Z,2.33
2023-01-11T23:46:47.049Z,1.98
2023-01-11T23:49:17.909Z,2.60
2023-01-11T23:51:44.997Z,2.85
2023-01-11T23:54:12.388Z,2.10
2023-01-11T23:56:39.739Z,2.63
2023-01-11T23:59:07.648Z,1.75
